sensor_id;sensor_type;location;lat;lon;timestamp;P1;durP1;ratioP1;P2;durP2;ratioP2
2638;SDS011;1329;51.384;7.122;2023-03-25T00:00:36;2.63;;;1.10;;
2638;SDS011;1329;51.384;7.122;2023-03-25T00:03:03;2.37;;;0.90;;
2638;SDS011;1329;51.384;7.122;2023-03-25T00:05:33;4.60;;;1.27;;
2638;SDS011;1329;51.384;7.122;2023-03-25T00:08:01;1.60;;;0.70;;
2638;SDS011;1329;51.384;7.122;2023-03-25T00:10:29;2.70;;;1.03;;
2638;SDS011;1329;51.384;7.122;2023-03-25T00:12:57;3.00;;;1.00;;
2638;SDS011;1329;51.384;7.122;2023-03-25T00:15:29;3.37;;;1.10;;
2638;SDS011;1329;51.384;7.122;2023-03-25T00:17:58;1.87;;;1.00;;
2638;SDS011;1329;51.384;7.122;2023-03-25T00:20:26;2.77;;;1.00;;
2638;SDS011;1329;51.384;7.122;2023-03-25T00:22:53;3.20;;;1.40;;
2638;SDS011;1329;51.384;7.122;2023-03-25T00:25:20;2.33;;;1.20;;
2638;SDS011;1329;51.384;7.122;2023-03-25T00:27:48;3.20;;;1.30;;
2638;SDS011;1329;51.384;7.122;2023-03-25T00:30:17;2.37;;;1.20;;
2638;SDS011;1329;51.384;7.122;2023-03-25T00:32:45;1.80;;;1.20;;
2638;SDS011;1329;51.384;7.122;2023-03-25T00:35:16;2.33;;;1.30;;
2638;SDS011;1329;51.384;7.122;2023-03-25T00:37:44;2.50;;;1.23;;
2638;SDS011;1329;51.384;7.122;2023-03-25T00:40:12;2.73;;;1.27;;
2638;SDS011;1329;51.384;7.122;2023-03-25T00:42:39;1.60;;;1.20;;
2638;SDS011;1329;51.384;7.122;2023-03-25T00:45:11;4.53;;;1.30;;
2638;SDS011;1329;51.384;7.122;2023-03-25T00:47:41;2.57;;;1.00;;
2638;SDS011;1329;51.384;7.122;2023-03-25T00:50:10;2.73;;;1.10;;
2638;SDS011;1329;51.384;7.122;2023-03-25T00:52:38;1.93;;;1.10;;
2638;SDS011;1329;51.384;7.122;2023-03-25T00:55:06;2.43;;;1.50;;
2638;SDS011;1329;51.384;7.122;2023-03-25T00:57:50;2.60;;;1.40;;
2638;SDS011;1329;51.384;7.122;2023-03-25T01:00:17;1.83;;;1.00;;
2638;SDS011;1329;51.384;7.122;2023-03-25T01:02:46;2.47;;;1.30;;
2638;SDS011;1329;51.384;7.122;2023-03-25T01:05:17;6.33;;;1.50;;
2638;SDS011;1329;51.384;7.122;2023-03-25T01:07:46;3.70;;;1.53;;
2638;SDS011;1329;51.384;7.122;2023-03-25T01:10:18;1.73;;;1.20;;
2638;SDS011;1329;51.384;7.122;2023-03-25T01:12:45;3.67;;;1.33;;
2638;SDS011;1329;51.384;7.122;2023-03-25T01:15:13;4.77;;;1.43;;
2638;SDS011;1329;51.384;7.122;2023-03-25T01:17:40;2.70;;;1.40;;
2638;SDS011;1329;51.384;7.122;2023-03-25T01:20:09;3.20;;;1.43;;
2638;SDS011;1329;51.384;7.122;2023-03-25T01:22:38;3.50;;;1.30;;
2638;SDS011;1329;51.384;7.122;2023-03-25T01:25:06;2.00;;;1.10;;
2638;SDS011;1329;51.384;7.122;2023-03-25T01:27:33;3.07;;;1.30;;
2638;SDS011;1329;51.384;7.122;2023-03-25T01:30:01;3.53;;;1.20;;
2638;SDS011;1329;51.384;7.122;2023-03-25T01:32:29;2.83;;;1.50;;
2638;SDS011;1329;51.384;7.122;2023-03-25T01:34:56;5.00;;;1.30;;
2638;SDS011;1329;51.384;7.122;2023-03-25T01:37:25;3.53;;;1.30;;
2638;SDS011;1329;51.384;7.122;2023-03-25T01:39:53;3.23;;;1.40;;
2638;SDS011;1329;51.384;7.122;2023-03-25T01:42:20;1.70;;;1.20;;
2638;SDS011;1329;51.384;7.122;2023-03-25T01:47:41;3.13;;;1.33;;
2638;SDS011;1329;51.384;7.122;2023-03-25T01:50:09;3.37;;;1.60;;
2638;SDS011;1329;51.384;7.122;2023-03-25T01:52:41;2.00;;;1.30;;
2638;SDS011;1329;51.384;7.122;2023-03-25T01:55:13;2.40;;;1.40;;
2638;SDS011;1329;51.384;7.122;2023-03-25T01:57:44;2.73;;;1.20;;
2638;SDS011;1329;51.384;7.122;2023-03-25T02:00:13;4.70;;;1.70;;
2638;SDS011;1329;51.384;7.122;2023-03-25T02:02:43;2.73;;;1.20;;
2638;SDS011;1329;51.384;7.122;2023-03-25T02:05:14;3.43;;;1.40;;
2638;SDS011;1329;51.384;7.122;2023-03-25T02:07:48;3.37;;;1.20;;
2638;SDS011;1329;51.384;7.122;2023-03-25T02:10:17;3.00;;;1.10;;
2638;SDS011;1329;51.384;7.122;2023-03-25T02:12:45;2.13;;;1.40;;
2638;SDS011;1329;51.384;7.122;2023-03-25T02:15:13;3.20;;;1.30;;
2638;SDS011;1329;51.384;7.122;2023-03-25T02:17:46;2.07;;;1.03;;
2638;SDS011;1329;51.384;7.122;2023-03-25T02:27:43;3.30;;;1.30;;
2638;SDS011;1329;51.384;7.122;2023-03-25T02:30:28;2.73;;;1.20;;
2638;SDS011;1329;51.384;7.122;2023-03-25T02:33:45;3.90;;;1.50;;
2638;SDS011;1329;51.384;7.122;2023-03-25T02:36:52;3.80;;;1.00;;
2638;SDS011;1329;51.384;7.122;2023-03-25T02:40:17;2.10;;;1.27;;
2638;SDS011;1329;51.384;7.122;2023-03-25T02:42:50;3.03;;;1.20;;
2638;SDS011;1329;51.384;7.122;2023-03-25T02:45:23;2.77;;;1.40;;
2638;SDS011;1329;51.384;7.122;2023-03-25T02:47:56;3.23;;;1.20;;
2638;SDS011;1329;51.384;7.122;2023-03-25T02:50:28;2.50;;;1.23;;
2638;SDS011;1329;51.384;7.122;2023-03-25T02:53:01;2.33;;;1.17;;
2638;SDS011;1329;51.384;7.122;2023-03-25T02:55:35;2.40;;;1.13;;
2638;SDS011;1329;51.384;7.122;2023-03-25T02:58:06;2.03;;;1.10;;
2638;SDS011;1329;51.384;7.122;2023-03-25T03:00:37;1.63;;;1.00;;
2638;SDS011;1329;51.384;7.122;2023-03-25T03:03:06;2.33;;;1.00;;
2638;SDS011;1329;51.384;7.122;2023-03-25T03:05:35;2.60;;;1.00;;
2638;SDS011;1329;51.384;7.122;2023-03-25T03:08:11;2.43;;;1.00;;
2638;SDS011;1329;51.384;7.122;2023-03-25T03:10:54;2.57;;;1.30;;
2638;SDS011;1329;51.384;7.122;2023-03-25T03:13:39;3.40;;;1.20;;
2638;SDS011;1329;51.384;7.122;2023-03-25T03:16:25;1.53;;;1.10;;
2638;SDS011;1329;51.384;7.122;2023-03-25T03:19:06;2.13;;;1.10;;
2638;SDS011;1329;51.384;7.122;2023-03-25T03:21:49;3.63;;;1.40;;
2638;SDS011;1329;51.384;7.122;2023-03-25T03:24:28;2.47;;;1.20;;
2638;SDS011;1329;51.384;7.122;2023-03-25T03:27:06;2.70;;;1.40;;
2638;SDS011;1329;51.384;7.122;2023-03-25T03:29:41;3.87;;;1.40;;
2638;SDS011;1329;51.384;7.122;2023-03-25T03:32:14;2.43;;;1.40;;
2638;SDS011;1329;51.384;7.122;2023-03-25T03:34:49;1.53;;;1.17;;
2638;SDS011;1329;51.384;7.122;2023-03-25T03:37:21;4.13;;;1.23;;
2638;SDS011;1329;51.384;7.122;2023-03-25T03:39:55;2.53;;;1.30;;
2638;SDS011;1329;51.384;7.122;2023-03-25T03:42:24;2.03;;;1.40;;
2638;SDS011;1329;51.384;7.122;2023-03-25T03:44:57;4.50;;;1.40;;
2638;SDS011;1329;51.384;7.122;2023-03-25T03:47:35;1.53;;;1.33;;
2638;SDS011;1329;51.384;7.122;2023-03-25T03:50:13;2.53;;;1.27;;
2638;SDS011;1329;51.384;7.122;2023-03-25T03:52:45;5.07;;;1.50;;
2638;SDS011;1329;51.384;7.122;2023-03-25T03:55:25;2.37;;;1.57;;
2638;SDS011;1329;51.384;7.122;2023-03-25T03:58:04;1.87;;;1.40;;
2638;SDS011;1329;51.384;7.122;2023-03-25T04:00:35;2.27;;;1.60;;
2638;SDS011;1329;51.384;7.122;2023-03-25T04:03:10;3.20;;;1.40;;
2638;SDS011;1329;51.384;7.122;2023-03-25T04:05:42;3.23;;;1.50;;
2638;SDS011;1329;51.384;7.122;2023-03-25T04:08:17;4.37;;;1.40;;
2638;SDS011;1329;51.384;7.122;2023-03-25T04:10:56;2.80;;;1.30;;
2638;SDS011;1329;51.384;7.122;2023-03-25T04:13:34;3.57;;;1.47;;
2638;SDS011;1329;51.384;7.122;2023-03-25T04:16:05;3.00;;;1.37;;
2638;SDS011;1329;51.384;7.122;2023-03-25T04:18:35;3.93;;;1.77;;
2638;SDS011;1329;51.384;7.122;2023-03-25T04:21:03;2.63;;;1.67;;
2638;SDS011;1329;51.384;7.122;2023-03-25T04:23:41;3.67;;;1.60;;
2638;SDS011;1329;51.384;7.122;2023-03-25T04:26:11;4.23;;;1.50;;
2638;SDS011;1329;51.384;7.122;2023-03-25T04:28:39;3.70;;;1.40;;
2638;SDS011;1329;51.384;7.122;2023-03-25T04:31:10;3.63;;;1.60;;
2638;SDS011;1329;51.384;7.122;2023-03-25T04:33:41;4.73;;;1.90;;
2638;SDS011;1329;51.384;7.122;2023-03-25T04:36:12;4.10;;;1.50;;
2638;SDS011;1329;51.384;7.122;2023-03-25T04:38:40;5.40;;;1.80;;
2638;SDS011;1329;51.384;7.122;2023-03-25T04:41:10;3.70;;;1.60;;
2638;SDS011;1329;51.384;7.122;2023-03-25T04:43:39;2.30;;;1.37;;
2638;SDS011;1329;51.384;7.122;2023-03-25T04:46:09;4.03;;;1.50;;
2638;SDS011;1329;51.384;7.122;2023-03-25T04:48:40;3.50;;;1.70;;
2638;SDS011;1329;51.384;7.122;2023-03-25T04:51:09;3.70;;;1.40;;
2638;SDS011;1329;51.384;7.122;2023-03-25T04:53:37;3.60;;;1.60;;
2638;SDS011;1329;51.384;7.122;2023-03-25T04:56:06;4.53;;;1.40;;
2638;SDS011;1329;51.384;7.122;2023-03-25T04:58:40;3.60;;;1.40;;
2638;SDS011;1329;51.384;7.122;2023-03-25T05:01:07;3.97;;;1.40;;
2638;SDS011;1329;51.384;7.122;2023-03-25T05:03:46;3.07;;;1.50;;
2638;SDS011;1329;51.384;7.122;2023-03-25T05:06:16;2.73;;;1.30;;
2638;SDS011;1329;51.384;7.122;2023-03-25T05:08:43;3.53;;;1.60;;
2638;SDS011;1329;51.384;7.122;2023-03-25T05:11:12;3.07;;;1.40;;
2638;SDS011;1329;51.384;7.122;2023-03-25T05:13:43;3.53;;;1.30;;
2638;SDS011;1329;51.384;7.122;2023-03-25T05:16:10;3.97;;;1.50;;
2638;SDS011;1329;51.384;7.122;2023-03-25T05:18:37;3.97;;;1.40;;
2638;SDS011;1329;51.384;7.122;2023-03-25T05:21:05;5.03;;;1.57;;
2638;SDS011;1329;51.384;7.122;2023-03-25T05:23:35;5.23;;;1.60;;
2638;SDS011;1329;51.384;7.122;2023-03-25T05:26:08;5.30;;;1.57;;
2638;SDS011;1329;51.384;7.122;2023-03-25T05:28:38;4.13;;;1.53;;
2638;SDS011;1329;51.384;7.122;2023-03-25T05:31:07;3.40;;;1.43;;
2638;SDS011;1329;51.384;7.122;2023-03-25T05:36:34;4.13;;;1.47;;
2638;SDS011;1329;51.384;7.122;2023-03-25T05:39:07;3.13;;;1.37;;
2638;SDS011;1329;51.384;7.122;2023-03-25T05:41:38;3.83;;;1.40;;
2638;SDS011;1329;51.384;7.122;2023-03-25T05:44:11;4.60;;;1.60;;
2638;SDS011;1329;51.384;7.122;2023-03-25T05:46:39;4.10;;;1.40;;
2638;SDS011;1329;51.384;7.122;2023-03-25T05:49:07;2.63;;;1.30;;
2638;SDS011;1329;51.384;7.122;2023-03-25T05:51:34;5.37;;;1.60;;
2638;SDS011;1329;51.384;7.122;2023-03-25T05:54:11;3.07;;;1.40;;
2638;SDS011;1329;51.384;7.122;2023-03-25T05:56:51;2.63;;;1.70;;
2638;SDS011;1329;51.384;7.122;2023-03-25T05:59:19;5.97;;;1.97;;
2638;SDS011;1329;51.384;7.122;2023-03-25T06:01:47;2.73;;;1.30;;
2638;SDS011;1329;51.384;7.122;2023-03-25T06:04:15;4.67;;;1.70;;
2638;SDS011;1329;51.384;7.122;2023-03-25T06:06:49;4.80;;;1.50;;
2638;SDS011;1329;51.384;7.122;2023-03-25T06:09:22;2.93;;;1.63;;
2638;SDS011;1329;51.384;7.122;2023-03-25T06:11:59;5.17;;;1.60;;
2638;SDS011;1329;51.384;7.122;2023-03-25T06:14:29;2.97;;;1.50;;
2638;SDS011;1329;51.384;7.122;2023-03-25T06:17:03;3.63;;;1.40;;
2638;SDS011;1329;51.384;7.122;2023-03-25T06:19:36;4.17;;;1.37;;
2638;SDS011;1329;51.384;7.122;2023-03-25T06:22:06;4.30;;;1.40;;
2638;SDS011;1329;51.384;7.122;2023-03-25T06:24:39;5.23;;;1.50;;
2638;SDS011;1329;51.384;7.122;2023-03-25T06:27:16;5.60;;;1.83;;
2638;SDS011;1329;51.384;7.122;2023-03-25T06:29:50;5.37;;;1.70;;
2638;SDS011;1329;51.384;7.122;2023-03-25T06:32:29;4.60;;;1.57;;
2638;SDS011;1329;51.384;7.122;2023-03-25T06:34:57;3.53;;;1.70;;
2638;SDS011;1329;51.384;7.122;2023-03-25T06:37:31;3.87;;;1.40;;
2638;SDS011;1329;51.384;7.122;2023-03-25T06:40:00;3.60;;;1.50;;
2638;SDS011;1329;51.384;7.122;2023-03-25T06:42:29;3.83;;;1.73;;
2638;SDS011;1329;51.384;7.122;2023-03-25T06:45:00;5.33;;;1.50;;
2638;SDS011;1329;51.384;7.122;2023-03-25T06:47:32;5.30;;;1.73;;
2638;SDS011;1329;51.384;7.122;2023-03-25T06:50:01;3.57;;;1.50;;
2638;SDS011;1329;51.384;7.122;2023-03-25T06:52:34;4.37;;;1.77;;
2638;SDS011;1329;51.384;7.122;2023-03-25T06:55:03;5.10;;;1.50;;
2638;SDS011;1329;51.384;7.122;2023-03-25T06:57:38;4.57;;;1.63;;
2638;SDS011;1329;51.384;7.122;2023-03-25T07:00:09;5.90;;;1.50;;
2638;SDS011;1329;51.384;7.122;2023-03-25T07:02:47;3.83;;;1.40;;
2638;SDS011;1329;51.384;7.122;2023-03-25T07:05:17;2.80;;;1.40;;
2638;SDS011;1329;51.384;7.122;2023-03-25T07:07:45;4.70;;;1.70;;
2638;SDS011;1329;51.384;7.122;2023-03-25T07:10:17;3.00;;;1.43;;
2638;SDS011;1329;51.384;7.122;2023-03-25T07:12:44;6.43;;;1.70;;
2638;SDS011;1329;51.384;7.122;2023-03-25T07:15:13;4.17;;;1.67;;
2638;SDS011;1329;51.384;7.122;2023-03-25T07:17:41;4.80;;;1.70;;
2638;SDS011;1329;51.384;7.122;2023-03-25T07:20:13;4.03;;;1.83;;
2638;SDS011;1329;51.384;7.122;2023-03-25T07:22:41;5.43;;;1.80;;
2638;SDS011;1329;51.384;7.122;2023-03-25T07:25:13;6.53;;;1.80;;
2638;SDS011;1329;51.384;7.122;2023-03-25T07:27:40;5.07;;;1.83;;
2638;SDS011;1329;51.384;7.122;2023-03-25T07:30:10;5.23;;;1.73;;
2638;SDS011;1329;51.384;7.122;2023-03-25T07:32:43;5.33;;;1.73;;
2638;SDS011;1329;51.384;7.122;2023-03-25T07:35:16;4.27;;;1.70;;
2638;SDS011;1329;51.384;7.122;2023-03-25T07:37:43;4.73;;;1.80;;
2638;SDS011;1329;51.384;7.122;2023-03-25T07:40:11;5.10;;;1.83;;
2638;SDS011;1329;51.384;7.122;2023-03-25T07:42:41;4.20;;;1.70;;
2638;SDS011;1329;51.384;7.122;2023-03-25T07:45:10;4.60;;;1.53;;
2638;SDS011;1329;51.384;7.122;2023-03-25T07:47:39;4.93;;;2.00;;
2638;SDS011;1329;51.384;7.122;2023-03-25T07:50:19;4.17;;;1.77;;
2638;SDS011;1329;51.384;7.122;2023-03-25T07:52:48;5.50;;;1.83;;
2638;SDS011;1329;51.384;7.122;2023-03-25T07:55:21;4.60;;;1.67;;
2638;SDS011;1329;51.384;7.122;2023-03-25T07:57:52;5.07;;;1.90;;
2638;SDS011;1329;51.384;7.122;2023-03-25T08:00:22;6.33;;;1.90;;
2638;SDS011;1329;51.384;7.122;2023-03-25T08:02:52;6.07;;;1.67;;
2638;SDS011;1329;51.384;7.122;2023-03-25T08:05:29;4.03;;;1.80;;
2638;SDS011;1329;51.384;7.122;2023-03-25T08:07:56;4.97;;;1.70;;
2638;SDS011;1329;51.384;7.122;2023-03-25T08:10:25;4.03;;;1.80;;
2638;SDS011;1329;51.384;7.122;2023-03-25T08:12:52;4.30;;;1.60;;
2638;SDS011;1329;51.384;7.122;2023-03-25T08:15:21;6.90;;;2.10;;
2638;SDS011;1329;51.384;7.122;2023-03-25T08:17:52;3.73;;;1.60;;
2638;SDS011;1329;51.384;7.122;2023-03-25T08:20:25;4.77;;;1.90;;
2638;SDS011;1329;51.384;7.122;2023-03-25T08:22:58;5.80;;;1.83;;
2638;SDS011;1329;51.384;7.122;2023-03-25T08:25:34;5.77;;;1.90;;
2638;SDS011;1329;51.384;7.122;2023-03-25T08:28:13;4.97;;;1.87;;
2638;SDS011;1329;51.384;7.122;2023-03-25T08:30:42;4.87;;;1.93;;
2638;SDS011;1329;51.384;7.122;2023-03-25T08:33:09;3.67;;;1.77;;
2638;SDS011;1329;51.384;7.122;2023-03-25T08:35:39;5.43;;;2.10;;
2638;SDS011;1329;51.384;7.122;2023-03-25T08:38:10;4.97;;;2.03;;
2638;SDS011;1329;51.384;7.122;2023-03-25T08:40:41;6.00;;;1.90;;
2638;SDS011;1329;51.384;7.122;2023-03-25T08:43:10;5.03;;;1.80;;
2638;SDS011;1329;51.384;7.122;2023-03-25T08:45:40;8.07;;;2.33;;
2638;SDS011;1329;51.384;7.122;2023-03-25T08:48:07;5.80;;;2.03;;
2638;SDS011;1329;51.384;7.122;2023-03-25T08:50:36;6.50;;;1.73;;
2638;SDS011;1329;51.384;7.122;2023-03-25T08:53:07;7.27;;;2.43;;
2638;SDS011;1329;51.384;7.122;2023-03-25T08:55:36;7.77;;;2.37;;
2638;SDS011;1329;51.384;7.122;2023-03-25T08:58:03;6.00;;;1.93;;
2638;SDS011;1329;51.384;7.122;2023-03-25T09:00:35;6.30;;;2.20;;
2638;SDS011;1329;51.384;7.122;2023-03-25T09:03:05;5.17;;;1.87;;
2638;SDS011;1329;51.384;7.122;2023-03-25T09:05:36;4.17;;;2.27;;
2638;SDS011;1329;51.384;7.122;2023-03-25T09:08:07;7.00;;;2.43;;
2638;SDS011;1329;51.384;7.122;2023-03-25T09:10:38;7.23;;;1.97;;
2638;SDS011;1329;51.384;7.122;2023-03-25T09:13:05;5.28;;;2.28;;
2638;SDS011;1329;51.384;7.122;2023-03-25T09:15:32;6.53;;;2.27;;
2638;SDS011;1329;51.384;7.122;2023-03-25T09:17:59;6.27;;;1.97;;
2638;SDS011;1329;51.384;7.122;2023-03-25T09:20:31;6.60;;;2.27;;
2638;SDS011;1329;51.384;7.122;2023-03-25T09:23:07;6.50;;;2.33;;
2638;SDS011;1329;51.384;7.122;2023-03-25T09:25:41;8.25;;;2.65;;
2638;SDS011;1329;51.384;7.122;2023-03-25T09:28:08;6.78;;;1.85;;
2638;SDS011;1329;51.384;7.122;2023-03-25T09:30:36;5.72;;;2.25;;
2638;SDS011;1329;51.384;7.122;2023-03-25T09:33:03;5.73;;;2.40;;
2638;SDS011;1329;51.384;7.122;2023-03-25T09:35:31;5.67;;;1.93;;
2638;SDS011;1329;51.384;7.122;2023-03-25T09:37:58;8.33;;;2.50;;
2638;SDS011;1329;51.384;7.122;2023-03-25T09:40:30;5.77;;;2.27;;
2638;SDS011;1329;51.384;7.122;2023-03-25T09:43:06;6.00;;;2.10;;
2638;SDS011;1329;51.384;7.122;2023-03-25T09:45:59;6.67;;;2.27;;
2638;SDS011;1329;51.384;7.122;2023-03-25T09:48:35;6.87;;;2.57;;
2638;SDS011;1329;51.384;7.122;2023-03-25T09:51:16;5.60;;;2.20;;
2638;SDS011;1329;51.384;7.122;2023-03-25T09:53:56;4.32;;;1.90;;
2638;SDS011;1329;51.384;7.122;2023-03-25T09:56:32;7.53;;;2.17;;
2638;SDS011;1329;51.384;7.122;2023-03-25T09:59:04;4.67;;;1.90;;
2638;SDS011;1329;51.384;7.122;2023-03-25T10:01:38;5.50;;;2.47;;
2638;SDS011;1329;51.384;7.122;2023-03-25T10:07:13;6.32;;;1.92;;
2638;SDS011;1329;51.384;7.122;2023-03-25T10:10:00;7.47;;;2.30;;
2638;SDS011;1329;51.384;7.122;2023-03-25T10:12:40;5.85;;;2.10;;
2638;SDS011;1329;51.384;7.122;2023-03-25T10:15:19;5.90;;;2.22;;
2638;SDS011;1329;51.384;7.122;2023-03-25T10:18:01;4.75;;;2.00;;
2638;SDS011;1329;51.384;7.122;2023-03-25T10:20:45;6.65;;;2.28;;
2638;SDS011;1329;51.384;7.122;2023-03-25T10:23:22;5.93;;;2.05;;
2638;SDS011;1329;51.384;7.122;2023-03-25T10:26:02;6.32;;;2.10;;
2638;SDS011;1329;51.384;7.122;2023-03-25T10:31:28;4.72;;;2.13;;
2638;SDS011;1329;51.384;7.122;2023-03-25T10:34:03;6.47;;;1.90;;
2638;SDS011;1329;51.384;7.122;2023-03-25T10:36:37;6.93;;;2.30;;
2638;SDS011;1329;51.384;7.122;2023-03-25T10:39:30;6.38;;;2.10;;
2638;SDS011;1329;51.384;7.122;2023-03-25T10:42:11;5.85;;;2.05;;
2638;SDS011;1329;51.384;7.122;2023-03-25T10:44:47;7.40;;;2.42;;
2638;SDS011;1329;51.384;7.122;2023-03-25T10:47:17;4.70;;;1.60;;
2638;SDS011;1329;51.384;7.122;2023-03-25T10:49:51;6.90;;;2.10;;
2638;SDS011;1329;51.384;7.122;2023-03-25T10:52:23;3.63;;;1.70;;
2638;SDS011;1329;51.384;7.122;2023-03-25T10:54:54;5.95;;;2.33;;
2638;SDS011;1329;51.384;7.122;2023-03-25T10:57:22;6.50;;;2.15;;
2638;SDS011;1329;51.384;7.122;2023-03-25T10:59:57;6.03;;;2.05;;
2638;SDS011;1329;51.384;7.122;2023-03-25T11:02:40;5.10;;;2.10;;
2638;SDS011;1329;51.384;7.122;2023-03-25T11:05:16;6.47;;;2.33;;
2638;SDS011;1329;51.384;7.122;2023-03-25T11:07:50;6.15;;;2.15;;
2638;SDS011;1329;51.384;7.122;2023-03-25T11:10:23;4.15;;;2.03;;
2638;SDS011;1329;51.384;7.122;2023-03-25T11:12:59;6.28;;;2.20;;
2638;SDS011;1329;51.384;7.122;2023-03-25T11:15:34;6.57;;;2.72;;
2638;SDS011;1329;51.384;7.122;2023-03-25T11:18:04;5.65;;;2.05;;
2638;SDS011;1329;51.384;7.122;2023-03-25T11:20:44;8.43;;;2.40;;
2638;SDS011;1329;51.384;7.122;2023-03-25T11:23:17;7.40;;;2.22;;
2638;SDS011;1329;51.384;7.122;2023-03-25T11:25:52;6.22;;;2.00;;
2638;SDS011;1329;51.384;7.122;2023-03-25T11:28:23;7.22;;;2.35;;
2638;SDS011;1329;51.384;7.122;2023-03-25T11:31:09;5.22;;;2.20;;
2638;SDS011;1329;51.384;7.122;2023-03-25T11:33:44;5.85;;;2.55;;
2638;SDS011;1329;51.384;7.122;2023-03-25T11:36:24;7.00;;;1.98;;
2638;SDS011;1329;51.384;7.122;2023-03-25T11:38:59;6.03;;;2.20;;
2638;SDS011;1329;51.384;7.122;2023-03-25T11:41:36;7.95;;;2.30;;
2638;SDS011;1329;51.384;7.122;2023-03-25T11:44:03;7.20;;;2.30;;
2638;SDS011;1329;51.384;7.122;2023-03-25T11:46:33;5.20;;;2.33;;
2638;SDS011;1329;51.384;7.122;2023-03-25T11:49:13;4.93;;;2.03;;
2638;SDS011;1329;51.384;7.122;2023-03-25T11:51:48;5.80;;;2.17;;
2638;SDS011;1329;51.384;7.122;2023-03-25T11:54:22;5.72;;;2.15;;
2638;SDS011;1329;51.384;7.122;2023-03-25T11:56:52;6.17;;;2.33;;
2638;SDS011;1329;51.384;7.122;2023-03-25T11:59:22;7.33;;;1.97;;
2638;SDS011;1329;51.384;7.122;2023-03-25T12:01:58;7.50;;;2.57;;
2638;SDS011;1329;51.384;7.122;2023-03-25T12:04:28;4.93;;;2.10;;
2638;SDS011;1329;51.384;7.122;2023-03-25T12:06:57;7.40;;;2.40;;
2638;SDS011;1329;51.384;7.122;2023-03-25T12:09:35;5.03;;;1.90;;
2638;SDS011;1329;51.384;7.122;2023-03-25T12:12:28;8.02;;;2.55;;
2638;SDS011;1329;51.384;7.122;2023-03-25T12:15:22;7.43;;;2.60;;
2638;SDS011;1329;51.384;7.122;2023-03-25T12:18:09;3.92;;;1.92;;
2638;SDS011;1329;51.384;7.122;2023-03-25T12:21:05;5.13;;;2.20;;
2638;SDS011;1329;51.384;7.122;2023-03-25T12:23:43;4.95;;;1.95;;
2638;SDS011;1329;51.384;7.122;2023-03-25T12:26:30;3.47;;;1.88;;
2638;SDS011;1329;51.384;7.122;2023-03-25T12:29:13;4.43;;;2.13;;
2638;SDS011;1329;51.384;7.122;2023-03-25T12:31:55;4.13;;;1.85;;
2638;SDS011;1329;51.384;7.122;2023-03-25T12:34:51;3.80;;;1.85;;
2638;SDS011;1329;51.384;7.122;2023-03-25T12:37:47;4.75;;;1.83;;
2638;SDS011;1329;51.384;7.122;2023-03-25T12:40:55;3.17;;;1.90;;
2638;SDS011;1329;51.384;7.122;2023-03-25T12:43:45;4.93;;;1.70;;
2638;SDS011;1329;51.384;7.122;2023-03-25T12:46:28;5.03;;;1.90;;
2638;SDS011;1329;51.384;7.122;2023-03-25T12:49:26;6.70;;;1.90;;
2638;SDS011;1329;51.384;7.122;2023-03-25T12:52:39;6.25;;;2.10;;
2638;SDS011;1329;51.384;7.122;2023-03-25T12:55:19;5.20;;;1.90;;
2638;SDS011;1329;51.384;7.122;2023-03-25T12:58:22;4.82;;;2.20;;
2638;SDS011;1329;51.384;7.122;2023-03-25T13:01:11;4.38;;;2.00;;
2638;SDS011;1329;51.384;7.122;2023-03-25T13:07:01;4.88;;;2.40;;
2638;SDS011;1329;51.384;7.122;2023-03-25T13:09:41;4.90;;;2.00;;
2638;SDS011;1329;51.384;7.122;2023-03-25T13:12:27;5.18;;;2.10;;
2638;SDS011;1329;51.384;7.122;2023-03-25T13:15:02;5.85;;;2.03;;
2638;SDS011;1329;51.384;7.122;2023-03-25T13:17:38;7.45;;;2.45;;
2638;SDS011;1329;51.384;7.122;2023-03-25T13:20:13;7.88;;;2.40;;
2638;SDS011;1329;51.384;7.122;2023-03-25T13:22:43;7.80;;;2.25;;
2638;SDS011;1329;51.384;7.122;2023-03-25T13:25:21;6.65;;;1.98;;
2638;SDS011;1329;51.384;7.122;2023-03-25T13:27:54;6.35;;;2.17;;
2638;SDS011;1329;51.384;7.122;2023-03-25T13:30:30;7.70;;;2.20;;
2638;SDS011;1329;51.384;7.122;2023-03-25T13:33:03;6.28;;;2.08;;
2638;SDS011;1329;51.384;7.122;2023-03-25T13:35:40;5.22;;;1.98;;
2638;SDS011;1329;51.384;7.122;2023-03-25T13:38:14;6.32;;;1.88;;
2638;SDS011;1329;51.384;7.122;2023-03-25T13:40:52;5.80;;;2.10;;
2638;SDS011;1329;51.384;7.122;2023-03-25T13:43:34;3.93;;;1.47;;
2638;SDS011;1329;51.384;7.122;2023-03-25T13:46:09;5.25;;;1.83;;
2638;SDS011;1329;51.384;7.122;2023-03-25T13:48:46;4.15;;;2.00;;
2638;SDS011;1329;51.384;7.122;2023-03-25T13:51:23;5.85;;;1.48;;
2638;SDS011;1329;51.384;7.122;2023-03-25T13:53:53;3.75;;;1.40;;
2638;SDS011;1329;51.384;7.122;2023-03-25T13:56:37;4.13;;;1.50;;
2638;SDS011;1329;51.384;7.122;2023-03-25T13:59:47;4.37;;;1.50;;
2638;SDS011;1329;51.384;7.122;2023-03-25T14:02:48;2.63;;;1.07;;
2638;SDS011;1329;51.384;7.122;2023-03-25T14:06:24;2.70;;;1.00;;
2638;SDS011;1329;51.384;7.122;2023-03-25T14:09:49;2.77;;;1.20;;
2638;SDS011;1329;51.384;7.122;2023-03-25T14:13:08;3.05;;;1.10;;
2638;SDS011;1329;51.384;7.122;2023-03-25T14:15:40;3.80;;;1.47;;
2638;SDS011;1329;51.384;7.122;2023-03-25T14:18:18;2.20;;;0.90;;
2638;SDS011;1329;51.384;7.122;2023-03-25T14:20:48;2.63;;;1.10;;
2638;SDS011;1329;51.384;7.122;2023-03-25T14:23:25;2.45;;;1.00;;
2638;SDS011;1329;51.384;7.122;2023-03-25T14:25:57;1.95;;;1.00;;
2638;SDS011;1329;51.384;7.122;2023-03-25T14:28:35;2.73;;;1.00;;
2638;SDS011;1329;51.384;7.122;2023-03-25T14:31:15;2.47;;;1.13;;
2638;SDS011;1329;51.384;7.122;2023-03-25T14:39:59;3.33;;;1.37;;
2638;SDS011;1329;51.384;7.122;2023-03-25T14:42:39;3.00;;;1.60;;
2638;SDS011;1329;51.384;7.122;2023-03-25T14:48:30;3.07;;;1.33;;
2638;SDS011;1329;51.384;7.122;2023-03-25T14:51:08;3.13;;;1.40;;
2638;SDS011;1329;51.384;7.122;2023-03-25T14:53:54;2.23;;;1.20;;
2638;SDS011;1329;51.384;7.122;2023-03-25T14:56:30;2.97;;;1.23;;
2638;SDS011;1329;51.384;7.122;2023-03-25T14:59:08;4.07;;;1.43;;
2638;SDS011;1329;51.384;7.122;2023-03-25T15:01:41;3.37;;;1.43;;
2638;SDS011;1329;51.384;7.122;2023-03-25T15:04:13;4.37;;;1.80;;
2638;SDS011;1329;51.384;7.122;2023-03-25T15:06:50;3.20;;;1.63;;
2638;SDS011;1329;51.384;7.122;2023-03-25T15:09:20;4.67;;;1.60;;
2638;SDS011;1329;51.384;7.122;2023-03-25T15:11:53;3.20;;;1.73;;
2638;SDS011;1329;51.384;7.122;2023-03-25T15:14:25;2.53;;;1.43;;
2638;SDS011;1329;51.384;7.122;2023-03-25T15:17:02;3.07;;;1.50;;
2638;SDS011;1329;51.384;7.122;2023-03-25T15:26:18;1.87;;;1.40;;
2638;SDS011;1329;51.384;7.122;2023-03-25T15:29:08;2.53;;;1.43;;
2638;SDS011;1329;51.384;7.122;2023-03-25T15:32:14;4.37;;;1.50;;
2638;SDS011;1329;51.384;7.122;2023-03-25T15:44:19;3.23;;;1.53;;
2638;SDS011;1329;51.384;7.122;2023-03-25T15:50:39;3.40;;;1.50;;
2638;SDS011;1329;51.384;7.122;2023-03-25T15:56:45;3.83;;;1.63;;
2638;SDS011;1329;51.384;7.122;2023-03-25T15:59:24;3.67;;;1.67;;
2638;SDS011;1329;51.384;7.122;2023-03-25T16:01:58;4.53;;;1.80;;
2638;SDS011;1329;51.384;7.122;2023-03-25T16:04:34;4.13;;;1.70;;
2638;SDS011;1329;51.384;7.122;2023-03-25T16:07:08;4.60;;;1.87;;
2638;SDS011;1329;51.384;7.122;2023-03-25T16:09:44;4.67;;;1.70;;
2638;SDS011;1329;51.384;7.122;2023-03-25T16:12:20;3.60;;;1.60;;
2638;SDS011;1329;51.384;7.122;2023-03-25T16:14:51;3.23;;;1.60;;
2638;SDS011;1329;51.384;7.122;2023-03-25T16:17:24;4.80;;;1.87;;
2638;SDS011;1329;51.384;7.122;2023-03-25T16:19:59;6.27;;;1.80;;
2638;SDS011;1329;51.384;7.122;2023-03-25T16:22:31;5.03;;;1.90;;
2638;SDS011;1329;51.384;7.122;2023-03-25T16:25:05;2.67;;;1.60;;
2638;SDS011;1329;51.384;7.122;2023-03-25T16:27:44;4.30;;;1.87;;
2638;SDS011;1329;51.384;7.122;2023-03-25T16:30:18;3.93;;;1.90;;
2638;SDS011;1329;51.384;7.122;2023-03-25T16:32:55;5.73;;;2.00;;
2638;SDS011;1329;51.384;7.122;2023-03-25T16:35:40;4.70;;;1.63;;
2638;SDS011;1329;51.384;7.122;2023-03-25T16:38:12;5.00;;;2.00;;
2638;SDS011;1329;51.384;7.122;2023-03-25T16:40:43;5.67;;;2.10;;
2638;SDS011;1329;51.384;7.122;2023-03-25T16:43:15;5.03;;;1.93;;
2638;SDS011;1329;51.384;7.122;2023-03-25T16:45:58;4.63;;;1.80;;
2638;SDS011;1329;51.384;7.122;2023-03-25T16:48:39;4.67;;;1.70;;
2638;SDS011;1329;51.384;7.122;2023-03-25T16:51:16;4.00;;;1.80;;
2638;SDS011;1329;51.384;7.122;2023-03-25T16:53:49;2.90;;;1.70;;
2638;SDS011;1329;51.384;7.122;2023-03-25T16:56:26;4.90;;;1.90;;